createdAt,value
2018-09-15T00:01:29.481Z,9.00
2018-09-15T00:03:59.248Z,11.00
2018-09-15T00:06:30.429Z,10.00
2018-09-15T00:08:59.945Z,11.25
2018-09-15T00:11:29.261Z,10.00
2018-09-15T00:13:59.018Z,10.25
2018-09-15T00:16:29.804Z,11.00
2018-09-15T00:18:59.361Z,9.75
2018-09-15T00:21:28.745Z,9.75
2018-09-15T00:23:58.167Z,12.25
2018-09-15T00:26:28.981Z,9.00
2018-09-15T00:29:01.010Z,10.00
2018-09-15T00:31:30.610Z,12.75
2018-09-15T00:34:02.648Z,14.00
2018-09-15T00:36:33.106Z,10.00
2018-09-15T00:39:03.129Z,10.25
2018-09-15T00:41:32.477Z,10.75
2018-09-15T00:44:01.934Z,11.00
2018-09-15T00:46:31.917Z,10.50
2018-09-15T00:49:01.905Z,12.75
2018-09-15T00:51:31.294Z,11.75
2018-09-15T00:54:01.122Z,13.25
2018-09-15T00:56:30.447Z,14.00
2018-09-15T00:59:00.379Z,10.50
2018-09-15T01:01:33.103Z,13.25
2018-09-15T01:04:04.015Z,12.00
2018-09-15T01:06:37.558Z,13.50
2018-09-15T01:09:09.163Z,12.50
2018-09-15T01:11:40.599Z,13.00
2018-09-15T01:14:09.993Z,10.00
2018-09-15T01:16:39.934Z,11.25
2018-09-15T01:19:09.724Z,8.00
2018-09-15T01:21:39.149Z,8.00
2018-09-15T01:24:09.164Z,7.25
2018-09-15T01:26:38.660Z,7.00
2018-09-15T01:29:08.275Z,5.75
2018-09-15T01:31:41.719Z,7.75
2018-09-15T01:34:11.446Z,8.75
2018-09-15T01:36:40.854Z,7.00
2018-09-15T01:39:11.828Z,8.00
2018-09-15T01:41:41.404Z,7.00
2018-09-15T01:44:11.340Z,7.00
2018-09-15T01:46:41.704Z,7.00
2018-09-15T01:49:11.051Z,7.00
2018-09-15T01:51:41.332Z,6.50
2018-09-15T01:54:12.170Z,7.00
2018-09-15T01:56:41.855Z,6.50
2018-09-15T01:59:12.035Z,6.50
2018-09-15T02:01:41.773Z,6.00
2018-09-15T02:04:11.251Z,7.00
2018-09-15T02:09:22.730Z,4.00
2018-09-15T02:11:52.869Z,6.00
2018-09-15T02:14:22.436Z,6.00
2018-09-15T02:16:52.489Z,6.00
2018-09-15T02:19:22.517Z,6.00
2018-09-15T02:21:52.279Z,7.00
2018-09-15T02:24:21.573Z,5.50
2018-09-15T02:26:51.608Z,6.00
2018-09-15T02:29:23.083Z,4.00
2018-09-15T02:31:53.184Z,6.00
2018-09-15T02:34:25.681Z,3.75
2018-09-15T02:36:56.709Z,4.00
2018-09-15T02:39:29.753Z,6.00
2018-09-15T02:41:59.518Z,4.00
2018-09-15T02:44:29.642Z,3.50
2018-09-15T02:47:00.232Z,3.00
2018-09-15T02:49:30.502Z,3.50
2018-09-15T02:52:03.013Z,4.00
2018-09-15T02:54:36.308Z,5.50
2018-09-15T02:57:06.875Z,3.25
2018-09-15T02:59:36.268Z,3.00
2018-09-15T03:02:06.657Z,3.25
2018-09-15T03:04:37.008Z,3.75
2018-09-15T03:07:06.456Z,2.25
2018-09-15T03:09:35.884Z,3.00
2018-09-15T03:12:06.141Z,3.00
2018-09-15T03:14:39.664Z,3.00
2018-09-15T03:17:09.258Z,3.00
2018-09-15T03:19:39.645Z,3.00
2018-09-15T03:22:09.873Z,4.00
2018-09-15T03:24:43.392Z,3.00
2018-09-15T03:27:15.349Z,3.00
2018-09-15T03:29:45.330Z,3.25
2018-09-15T03:32:16.272Z,2.00
2018-09-15T03:34:47.367Z,1.75
2018-09-15T03:37:18.377Z,2.25
2018-09-15T03:39:50.201Z,2.00
2018-09-15T03:42:19.746Z,2.00
2018-09-15T03:44:51.732Z,3.00
2018-09-15T03:47:22.257Z,2.25
2018-09-15T03:49:56.816Z,3.00
2018-09-15T03:52:26.970Z,3.00
2018-09-15T03:54:57.603Z,3.00
2018-09-15T03:57:28.982Z,2.25
2018-09-15T04:00:00.117Z,2.25
2018-09-15T04:02:30.607Z,2.50
2018-09-15T04:05:03.267Z,3.00
2018-09-15T04:07:32.908Z,2.50
2018-09-15T04:10:03.382Z,2.75
2018-09-15T04:12:38.217Z,2.75
2018-09-15T04:15:09.982Z,2.00
2018-09-15T04:17:44.126Z,3.00
2018-09-15T04:20:13.895Z,2.00
2018-09-15T04:22:48.271Z,3.00
2018-09-15T04:25:17.791Z,2.00
2018-09-15T04:27:48.485Z,3.00
2018-09-15T04:30:18.320Z,2.00
2018-09-15T04:32:48.611Z,2.00
2018-09-15T04:35:20.502Z,3.00
2018-09-15T04:37:50.545Z,3.00
2018-09-15T04:40:20.517Z,2.00
2018-09-15T04:42:57.113Z,2.00
2018-09-15T04:45:27.683Z,3.00
2018-09-15T04:47:58.016Z,2.75
2018-09-15T04:50:27.357Z,3.00
2018-09-15T04:53:00.897Z,2.75
2018-09-15T04:55:31.272Z,3.00
2018-09-15T04:58:02.160Z,3.00
2018-09-15T05:00:33.356Z,3.00
2018-09-15T05:03:04.693Z,2.00
2018-09-15T05:05:36.946Z,2.25
2018-09-15T05:08:07.399Z,2.00
2018-09-15T05:10:37.827Z,2.00
2018-09-15T05:13:07.645Z,2.00
2018-09-15T05:15:38.375Z,3.00
2018-09-15T05:18:08.041Z,3.00
2018-09-15T05:20:38.418Z,2.25
2018-09-15T05:23:08.057Z,2.50
2018-09-15T05:25:37.608Z,2.25
2018-09-15T05:28:07.330Z,2.50
2018-09-15T05:30:37.036Z,2.50
2018-09-15T05:33:07.437Z,2.50
2018-09-15T05:35:36.737Z,2.25
2018-09-15T05:38:06.176Z,3.75
2018-09-15T05:40:37.694Z,3.00
2018-09-15T05:43:08.053Z,3.00
2018-09-15T05:45:37.840Z,2.25
2018-09-15T05:48:07.603Z,2.00
2018-09-15T05:50:37.448Z,3.50
2018-09-15T05:53:07.904Z,3.00
2018-09-15T05:55:37.353Z,3.00
2018-09-15T05:58:06.731Z,3.00
2018-09-15T06:00:36.271Z,3.00
2018-09-15T06:03:05.682Z,4.25
2018-09-15T06:05:35.350Z,4.25
2018-09-15T06:08:05.676Z,4.75
2018-09-15T06:10:35.108Z,3.00
2018-09-15T06:13:04.822Z,3.00
2018-09-15T06:15:34.744Z,4.75
2018-09-15T06:18:05.404Z,4.00
2018-09-15T06:20:35.202Z,4.00
2018-09-15T06:23:04.654Z,3.25
2018-09-15T06:25:35.519Z,3.00
2018-09-15T06:28:04.848Z,4.00
2018-09-15T06:30:45.497Z,3.50
2018-09-15T06:33:15.324Z,3.25
2018-09-15T06:35:47.040Z,4.00
2018-09-15T06:38:18.746Z,4.00
2018-09-15T06:40:50.661Z,3.00
2018-09-15T06:43:20.481Z,3.75
2018-09-15T06:45:50.789Z,4.00
2018-09-15T06:48:20.125Z,3.50
2018-09-15T06:50:49.674Z,3.50
2018-09-15T06:53:22.433Z,4.00
2018-09-15T06:55:52.123Z,4.00
2018-09-15T07:01:04.481Z,4.00
2018-09-15T07:03:35.604Z,2.50
2018-09-15T07:06:07.665Z,3.00
2018-09-15T07:08:37.074Z,3.75
2018-09-15T07:11:07.358Z,4.00
2018-09-15T07:13:37.219Z,4.25
2018-09-15T07:16:07.014Z,4.00
2018-09-15T07:18:37.794Z,4.00
2018-09-15T07:21:08.043Z,6.75
2018-09-15T07:23:38.372Z,5.00
2018-09-15T07:26:08.578Z,5.00
2018-09-15T07:28:38.949Z,4.00
2018-09-15T07:31:09.859Z,4.00
2018-09-15T07:33:40.525Z,4.00
2018-09-15T07:36:10.752Z,4.75
2018-09-15T07:38:42.590Z,3.75
2018-09-15T07:41:14.816Z,4.75
2018-09-15T07:43:49.197Z,5.00
2018-09-15T07:46:21.320Z,5.00
2018-09-15T07:48:54.484Z,3.00
2018-09-15T07:51:33.482Z,5.00
2018-09-15T07:54:03.784Z,5.00
2018-09-15T07:56:35.527Z,5.00
2018-09-15T07:59:05.566Z,4.25
2018-09-15T08:01:36.895Z,4.00
2018-09-15T08:04:07.895Z,4.75
2018-09-15T08:06:38.944Z,5.25
2018-09-15T08:09:13.349Z,4.25
2018-09-15T08:11:43.270Z,6.00
2018-09-15T08:14:13.787Z,4.25
2018-09-15T08:16:44.441Z,6.00
2018-09-15T08:19:23.262Z,4.00
2018-09-15T08:21:54.126Z,4.00
2018-09-15T08:24:28.470Z,4.75
2018-09-15T08:26:59.466Z,5.00
2018-09-15T08:29:29.862Z,4.00
2018-09-15T08:32:04.119Z,4.00
2018-09-15T08:34:33.574Z,4.00
2018-09-15T08:37:03.916Z,5.00
2018-09-15T08:39:35.448Z,5.00
2018-09-15T08:42:06.859Z,5.00
2018-09-15T08:44:36.399Z,6.00
2018-09-15T08:47:07.719Z,4.50
2018-09-15T08:49:40.138Z,4.00
2018-09-15T08:52:10.202Z,5.00
2018-09-15T08:54:41.287Z,5.00
2018-09-15T08:57:12.598Z,4.00
2018-09-15T08:59:51.041Z,4.25
2018-09-15T09:02:21.539Z,5.00
2018-09-15T09:04:55.311Z,6.00
2018-09-15T09:07:25.852Z,5.00
2018-09-15T09:09:58.173Z,5.00
2018-09-15T09:12:27.807Z,5.00
2018-09-15T09:14:57.637Z,5.00
2018-09-15T09:17:28.683Z,4.50
2018-09-15T09:19:58.280Z,5.25
2018-09-15T09:22:28.361Z,6.00
2018-09-15T09:25:14.027Z,5.00
2018-09-15T09:27:46.214Z,5.50
2018-09-15T09:30:18.265Z,5.75
2018-09-15T09:32:48.006Z,5.00
2018-09-15T09:35:18.397Z,4.50
2018-09-15T09:37:49.005Z,5.00
2018-09-15T09:40:19.951Z,5.00
2018-09-15T09:42:57.362Z,5.00
2018-09-15T09:45:28.245Z,6.00
2018-09-15T09:47:58.925Z,6.00
2018-09-15T09:50:29.618Z,5.00
2018-09-15T09:53:00.165Z,5.50
2018-09-15T09:55:33.885Z,6.00
2018-09-15T09:58:04.729Z,5.00
2018-09-15T10:00:40.706Z,5.25
2018-09-15T10:03:13.839Z,4.00
2018-09-15T10:05:44.438Z,5.00
2018-09-15T10:08:14.433Z,4.50
2018-09-15T10:10:45.355Z,5.00
2018-09-15T10:13:15.225Z,4.25
2018-09-15T10:15:46.996Z,4.75
2018-09-15T10:18:19.942Z,4.25
2018-09-15T10:20:51.908Z,4.75
2018-09-15T10:23:22.594Z,4.75
2018-09-15T10:25:53.967Z,4.75
2018-09-15T10:28:27.245Z,7.75
2018-09-15T10:31:14.019Z,5.00
2018-09-15T10:33:52.040Z,3.25
2018-09-15T10:36:24.086Z,4.25
2018-09-15T10:39:04.393Z,4.25
2018-09-15T10:41:38.524Z,3.25
2018-09-15T10:44:09.729Z,4.25
2018-09-15T10:46:40.824Z,3.50
2018-09-15T10:49:10.675Z,4.75
2018-09-15T10:51:41.961Z,6.75
2018-09-15T10:54:11.405Z,5.50
2018-09-15T10:56:41.913Z,3.75
2018-09-15T10:59:11.695Z,4.00
2018-09-15T11:01:44.365Z,3.00
2018-09-15T11:04:18.532Z,3.00
2018-09-15T11:09:32.140Z,4.00
2018-09-15T11:12:12.000Z,3.25
2018-09-15T11:14:44.016Z,4.00
2018-09-15T11:17:19.423Z,3.00
2018-09-15T11:19:50.932Z,2.50
2018-09-15T11:22:25.321Z,2.75
2018-09-15T11:24:55.524Z,3.00
2018-09-15T11:27:30.430Z,2.75
2018-09-15T11:30:00.873Z,3.00
2018-09-15T11:32:31.429Z,2.25
2018-09-15T11:35:02.202Z,3.00
2018-09-15T11:37:34.905Z,3.00
2018-09-15T11:40:07.580Z,3.00
2018-09-15T11:42:38.650Z,4.00
2018-09-15T11:45:09.551Z,4.00
2018-09-15T11:47:44.217Z,2.50
2018-09-15T11:50:21.993Z,3.75
2018-09-15T11:52:54.248Z,3.75
2018-09-15T11:55:23.813Z,2.00
2018-09-15T11:57:54.067Z,3.25
2018-09-15T12:00:29.010Z,3.00
2018-09-15T12:03:00.585Z,3.25
2018-09-15T12:05:30.505Z,3.00
2018-09-15T12:08:00.295Z,4.50
2018-09-15T12:10:30.514Z,4.00
2018-09-15T12:13:00.437Z,3.50
2018-09-15T12:15:31.879Z,3.25
2018-09-15T12:18:08.167Z,3.00
2018-09-15T12:20:41.691Z,4.00
2018-09-15T12:23:16.417Z,4.00
2018-09-15T12:25:48.150Z,4.50
2018-09-15T12:28:23.495Z,4.25
2018-09-15T12:30:56.131Z,4.00
2018-09-15T12:33:27.337Z,5.25
2018-09-15T12:35:59.104Z,5.50
2018-09-15T12:38:28.814Z,5.00
2018-09-15T12:40:58.853Z,4.25
2018-09-15T12:43:29.447Z,6.75
2018-09-15T12:46:01.578Z,6.25
2018-09-15T12:48:33.168Z,4.75
2018-09-15T12:51:03.187Z,4.75
2018-09-15T12:53:35.355Z,6.25
2018-09-15T12:56:05.067Z,6.50
2018-09-15T12:58:36.221Z,5.75
2018-09-15T13:01:06.657Z,5.75
2018-09-15T13:03:38.320Z,5.25
2018-09-15T13:06:09.501Z,5.25
2018-09-15T13:08:41.221Z,5.25
2018-09-15T13:11:11.765Z,6.25
2018-09-15T13:13:43.354Z,5.25
2018-09-15T13:16:20.507Z,6.25
2018-09-15T13:18:52.924Z,5.50
2018-09-15T13:21:23.410Z,6.75
2018-09-15T13:23:58.949Z,5.75
2018-09-15T13:26:28.797Z,4.75
2018-09-15T13:29:01.513Z,4.75
2018-09-15T13:31:34.691Z,3.75
2018-09-15T13:34:05.566Z,5.75
2018-09-15T13:36:35.863Z,5.75
2018-09-15T13:39:07.961Z,4.50
2018-09-15T13:41:38.859Z,5.50
2018-09-15T13:44:08.556Z,4.50
2018-09-15T13:46:41.664Z,4.00
2018-09-15T13:49:12.086Z,4.75
2018-09-15T13:51:44.627Z,4.75
2018-09-15T13:54:15.473Z,5.50
2018-09-15T13:56:45.922Z,4.75
2018-09-15T13:59:15.480Z,4.00
2018-09-15T14:01:48.029Z,4.00
2018-09-15T14:04:18.313Z,4.50
2018-09-15T14:06:50.581Z,4.00
2018-09-15T14:09:21.543Z,4.00
2018-09-15T14:11:53.497Z,4.00
2018-09-15T14:14:24.389Z,5.00
2018-09-15T14:16:55.968Z,5.00
2018-09-15T14:19:27.303Z,4.50
2018-09-15T14:21:58.205Z,5.00
2018-09-15T14:24:29.013Z,4.50
2018-09-15T14:27:01.715Z,5.00
2018-09-15T14:29:35.121Z,4.75
2018-09-15T14:32:09.414Z,5.25
2018-09-15T14:34:40.294Z,5.50
2018-09-15T14:37:09.789Z,5.00
2018-09-15T14:39:43.747Z,5.50
2018-09-15T14:42:13.207Z,6.00
2018-09-15T14:44:43.184Z,5.75
2018-09-15T14:47:14.300Z,4.00
2018-09-15T14:49:45.182Z,5.00
2018-09-15T14:52:16.332Z,6.25
2018-09-15T14:54:48.121Z,5.75
2018-09-15T14:57:23.452Z,5.25
2018-09-15T14:59:54.985Z,5.25
2018-09-15T15:02:27.649Z,4.25
2018-09-15T15:04:59.481Z,5.25
2018-09-15T15:07:35.239Z,5.00
2018-09-15T15:10:08.063Z,4.25
2018-09-15T15:12:38.729Z,4.75
2018-09-15T15:15:08.995Z,5.50
2018-09-15T15:17:44.701Z,4.00
2018-09-15T15:20:17.342Z,5.75
2018-09-15T15:22:48.098Z,7.00
2018-09-15T15:25:20.462Z,7.00
2018-09-15T15:27:50.333Z,6.50
2018-09-15T15:30:21.827Z,6.75
2018-09-15T15:32:51.383Z,7.00
2018-09-15T15:35:22.502Z,6.00
2018-09-15T15:38:07.733Z,7.00
2018-09-15T15:40:45.791Z,6.00
2018-09-15T15:43:16.424Z,7.00
2018-09-15T15:45:59.453Z,6.50
2018-09-15T15:48:32.027Z,6.50
2018-09-15T15:51:10.672Z,7.75
2018-09-15T15:53:42.211Z,7.25
2018-09-15T15:56:13.898Z,7.00
2018-09-15T15:58:45.017Z,7.00
2018-09-15T16:01:19.682Z,7.00
2018-09-15T16:03:55.075Z,8.00
2018-09-15T16:06:26.224Z,6.50
2018-09-15T16:08:55.706Z,8.00
2018-09-15T16:11:26.813Z,7.00
2018-09-15T16:14:02.057Z,7.00
2018-09-15T16:16:32.138Z,6.00
2018-09-15T16:19:11.238Z,7.50
2018-09-15T16:21:45.066Z,7.00
2018-09-15T16:24:17.257Z,7.50
2018-09-15T16:26:53.862Z,8.25
2018-09-15T16:32:03.561Z,8.00
2018-09-15T16:34:39.708Z,7.75
2018-09-15T16:40:17.696Z,8.25
2018-09-15T16:42:51.773Z,9.50
2018-09-15T16:45:23.641Z,8.00
2018-09-15T16:47:57.398Z,8.50
2018-09-15T16:50:28.265Z,9.50
2018-09-15T16:53:02.400Z,10.75
2018-09-15T16:55:34.766Z,9.00
2018-09-15T16:58:12.341Z,10.00
2018-09-15T17:00:42.382Z,11.00
2018-09-15T17:03:12.163Z,11.00
2018-09-15T17:05:48.111Z,11.50
2018-09-15T17:08:18.657Z,11.00
2018-09-15T17:10:59.093Z,11.00
2018-09-15T17:13:29.508Z,10.00
2018-09-15T17:16:01.606Z,11.00
2018-09-15T17:18:35.576Z,11.50
2018-09-15T17:21:10.787Z,12.25
2018-09-15T17:23:43.594Z,12.25
2018-09-15T17:26:14.166Z,13.00
2018-09-15T17:28:53.515Z,12.25
2018-09-15T17:31:24.311Z,11.75
2018-09-15T17:33:59.351Z,12.00
2018-09-15T17:36:36.112Z,12.25
2018-09-15T17:39:08.937Z,12.00
2018-09-15T17:44:29.178Z,14.00
2018-09-15T17:46:59.228Z,11.25
2018-09-15T17:49:33.824Z,15.50
2018-09-15T17:52:10.553Z,13.00
2018-09-15T17:54:44.258Z,14.75
2018-09-15T17:57:18.957Z,15.75
2018-09-15T17:59:59.964Z,17.50
2018-09-15T18:02:32.106Z,21.50
2018-09-15T18:05:14.039Z,26.50
2018-09-15T18:07:52.523Z,22.50
2018-09-15T18:10:26.185Z,21.00
2018-09-15T18:13:25.870Z,21.00
2018-09-15T18:16:00.738Z,21.00
2018-09-15T18:18:38.075Z,21.00
2018-09-15T18:21:11.803Z,21.00
2018-09-15T18:23:43.567Z,21.00
2018-09-15T18:26:13.153Z,19.25
2018-09-15T18:28:44.748Z,18.75
2018-09-15T18:31:14.341Z,17.75
2018-09-15T18:33:45.918Z,19.75
2018-09-15T18:36:16.809Z,19.75
2018-09-15T18:38:51.210Z,24.25
2018-09-15T18:41:25.219Z,16.00
2018-09-15T18:43:56.543Z,14.75
2018-09-15T18:46:28.579Z,14.75
2018-09-15T18:52:03.055Z,15.00
2018-09-15T18:54:36.406Z,15.75
2018-09-15T18:57:07.871Z,15.75
2018-09-15T18:59:47.239Z,19.00
2018-09-15T19:02:19.946Z,15.75
2018-09-15T19:04:50.650Z,17.75
2018-09-15T19:07:21.111Z,16.75
2018-09-15T19:09:51.609Z,19.00
2018-09-15T19:12:31.625Z,18.00
2018-09-15T19:15:15.836Z,16.75
2018-09-15T19:17:47.928Z,16.25
2018-09-15T19:20:19.323Z,16.75
2018-09-15T19:22:49.435Z,14.00
2018-09-15T19:25:21.277Z,13.75
2018-09-15T19:27:54.932Z,14.00
2018-09-15T19:30:31.276Z,14.50
2018-09-15T19:33:11.670Z,13.00
2018-09-15T19:38:21.867Z,14.25
2018-09-15T19:40:51.533Z,14.00
2018-09-15T19:49:27.082Z,13.75
2018-09-15T19:51:58.125Z,15.75
2018-09-15T19:54:30.032Z,16.75
2018-09-15T19:57:08.417Z,16.50
2018-09-15T19:59:39.815Z,17.00
2018-09-15T20:02:16.836Z,18.00
2018-09-15T20:04:49.674Z,17.00
2018-09-15T20:07:20.541Z,16.00
2018-09-15T20:09:53.273Z,14.75
2018-09-15T20:12:24.363Z,14.25
2018-09-15T20:14:57.300Z,15.75
2018-09-15T20:17:31.480Z,17.00
2018-09-15T20:20:00.335Z,15.75
2018-09-15T20:22:33.679Z,16.25
2018-09-15T20:25:08.376Z,18.00
2018-09-15T20:27:40.101Z,17.25
2018-09-15T20:32:49.761Z,17.00
2018-09-15T20:35:19.868Z,18.50
2018-09-15T20:37:50.285Z,19.75
2018-09-15T20:40:22.697Z,17.00
2018-09-15T20:42:54.320Z,16.50
2018-09-15T20:45:24.695Z,17.00
2018-09-15T20:47:57.948Z,16.25
2018-09-15T20:50:27.590Z,17.00
2018-09-15T20:52:57.768Z,17.50
2018-09-15T20:55:31.570Z,16.00
2018-09-15T20:58:05.890Z,16.25
2018-09-15T21:00:40.639Z,16.00
2018-09-15T21:03:11.187Z,16.75
2018-09-15T21:05:42.325Z,15.00
2018-09-15T21:08:18.563Z,16.50
2018-09-15T21:10:49.660Z,16.00
2018-09-15T21:13:20.639Z,16.25
2018-09-15T21:16:04.243Z,17.50
2018-09-15T21:18:35.743Z,18.50
2018-09-15T21:21:11.929Z,20.25
2018-09-15T21:23:45.942Z,19.75
2018-09-15T21:26:17.315Z,18.25
2018-09-15T21:28:48.270Z,21.50
2018-09-15T21:31:21.783Z,20.00
2018-09-15T21:33:51.298Z,20.75
2018-09-15T21:36:20.904Z,20.50
2018-09-15T21:38:50.380Z,21.00
2018-09-15T21:41:20.573Z,21.00
2018-09-15T21:43:51.128Z,18.50
2018-09-15T21:46:22.453Z,21.00
2018-09-15T21:48:53.001Z,19.50
2018-09-15T21:51:25.517Z,19.00
2018-09-15T21:53:55.000Z,20.25
2018-09-15T21:56:24.634Z,17.75
2018-09-15T21:58:56.124Z,23.25
2018-09-15T22:01:25.845Z,23.50
2018-09-15T22:04:01.710Z,22.00
2018-09-15T22:06:34.611Z,23.75
2018-09-15T22:09:06.270Z,22.75
2018-09-15T22:11:36.018Z,21.25
2018-09-15T22:14:06.697Z,21.25
2018-09-15T22:16:37.257Z,22.25
2018-09-15T22:19:07.587Z,23.00
2018-09-15T22:21:38.477Z,20.75
2018-09-15T22:24:11.703Z,20.50
2018-09-15T22:26:47.470Z,20.00
2018-09-15T22:29:20.666Z,18.00
2018-09-15T22:31:52.803Z,20.00
2018-09-15T22:34:27.537Z,19.50
2018-09-15T22:36:58.164Z,19.50
2018-09-15T22:39:33.625Z,23.00
2018-09-15T22:42:03.623Z,21.75
2018-09-15T22:44:33.370Z,21.00
2018-09-15T22:47:03.584Z,19.25
2018-09-15T22:49:36.651Z,19.50
2018-09-15T22:52:06.128Z,21.50
2018-09-15T22:54:40.397Z,22.50
2018-09-15T22:57:11.939Z,22.50
2018-09-15T22:59:51.312Z,18.25
2018-09-15T23:02:22.863Z,20.75
2018-09-15T23:04:55.688Z,22.00
2018-09-15T23:07:28.870Z,22.00
2018-09-15T23:09:58.895Z,21.25
2018-09-15T23:12:30.595Z,23.25
2018-09-15T23:15:04.623Z,23.00
2018-09-15T23:17:35.960Z,24.75
2018-09-15T23:20:06.777Z,23.50
2018-09-15T23:22:38.647Z,24.50
2018-09-15T23:25:08.438Z,26.50
2018-09-15T23:27:37.964Z,24.75
2018-09-15T23:30:08.446Z,23.50
2018-09-15T23:32:41.425Z,24.75
2018-09-15T23:35:12.606Z,23.75
2018-09-15T23:37:42.140Z,24.75
2018-09-15T23:40:15.090Z,24.25
2018-09-15T23:42:46.308Z,23.25
2018-09-15T23:45:18.579Z,23.75
2018-09-15T23:47:49.278Z,24.75
2018-09-15T23:50:19.669Z,25.25
2018-09-15T23:52:50.002Z,23.75
2018-09-15T23:55:25.262Z,24.25
2018-09-15T23:57:55.424Z,23.75
